createdAt,value
2019-05-06T00:01:24.628Z,12.97
2019-05-06T00:03:54.166Z,14.53
2019-05-06T00:06:24.164Z,11.43
2019-05-06T00:08:55.307Z,12.30
2019-05-06T00:11:26.134Z,12.33
2019-05-06T00:13:55.576Z,13.47
2019-05-06T00:16:24.831Z,11.60
2019-05-06T00:18:54.250Z,13.83
2019-05-06T00:21:24.447Z,13.90
2019-05-06T00:23:54.669Z,17.27
2019-05-06T00:26:34.526Z,15.53
2019-05-06T00:29:05.621Z,17.00
2019-05-06T00:31:34.725Z,12.97
2019-05-06T00:34:04.364Z,13.80
2019-05-06T00:36:34.514Z,14.73
2019-05-06T00:39:05.116Z,16.87
2019-05-06T00:41:36.429Z,14.27
2019-05-06T00:44:05.116Z,14.77
2019-05-06T00:46:34.447Z,16.60
2019-05-06T00:49:03.892Z,13.73
2019-05-06T00:51:33.808Z,15.43
2019-05-06T00:54:04.873Z,16.97
2019-05-06T00:56:34.211Z,14.40
2019-05-06T00:59:03.747Z,18.13
2019-05-06T01:01:34.444Z,12.13
2019-05-06T01:04:04.840Z,14.53
2019-05-06T01:06:34.373Z,13.10
2019-05-06T01:09:04.562Z,13.90
2019-05-06T01:11:34.608Z,13.53
2019-05-06T01:14:05.382Z,12.50
2019-05-06T01:16:34.608Z,12.53
2019-05-06T01:19:04.751Z,12.23
2019-05-06T01:21:34.336Z,13.40
2019-05-06T01:24:04.016Z,14.73
2019-05-06T01:26:33.763Z,12.93
2019-05-06T01:29:03.887Z,14.23
2019-05-06T01:31:40.581Z,13.17
2019-05-06T01:34:04.290Z,13.97
2019-05-06T01:36:34.310Z,13.43
2019-05-06T01:39:13.767Z,12.97
2019-05-06T01:41:53.633Z,16.17
2019-05-06T01:44:24.402Z,16.93
2019-05-06T01:46:54.168Z,15.80
2019-05-06T01:49:24.521Z,16.43
2019-05-06T01:51:54.562Z,15.77
2019-05-06T01:54:24.937Z,18.63
2019-05-06T01:56:54.279Z,15.57
2019-05-06T01:59:24.644Z,17.17
2019-05-06T02:02:00.553Z,20.47
2019-05-06T02:04:24.520Z,16.50
2019-05-06T02:06:55.378Z,15.03
2019-05-06T02:09:24.843Z,16.43
2019-05-06T02:11:53.872Z,18.93
2019-05-06T02:14:24.463Z,15.50
2019-05-06T02:16:54.552Z,15.97
2019-05-06T02:19:24.266Z,17.70
2019-05-06T02:21:55.079Z,18.60
2019-05-06T02:24:28.544Z,19.60
2019-05-06T02:26:57.608Z,15.53
2019-05-06T02:29:40.350Z,15.83
2019-05-06T02:32:31.181Z,15.23
2019-05-06T02:35:14.935Z,18.27
2019-05-06T02:37:46.457Z,19.23
2019-05-06T02:40:27.932Z,17.07
2019-05-06T02:42:57.056Z,13.17
2019-05-06T02:45:26.019Z,16.67
2019-05-06T02:48:04.398Z,18.53
2019-05-06T02:50:46.765Z,20.53
2019-05-06T02:53:17.371Z,17.60
2019-05-06T02:55:46.031Z,17.13
2019-05-06T02:58:15.112Z,15.20
2019-05-06T03:00:44.333Z,19.30
2019-05-06T03:03:14.184Z,18.70
2019-05-06T03:05:44.170Z,19.73
2019-05-06T03:08:13.736Z,18.10
2019-05-06T03:10:44.183Z,17.57
2019-05-06T03:13:14.176Z,18.33
2019-05-06T03:15:43.811Z,18.27
2019-05-06T03:18:14.779Z,15.43
2019-05-06T03:20:59.082Z,19.50
2019-05-06T03:23:34.996Z,21.77
2019-05-06T03:26:06.402Z,17.33
2019-05-06T03:28:33.963Z,18.67
2019-05-06T03:31:06.998Z,18.77
2019-05-06T03:33:50.549Z,19.73
2019-05-06T03:36:15.015Z,20.03
2019-05-06T03:38:34.412Z,18.87
2019-05-06T03:41:03.410Z,16.93
2019-05-06T03:43:33.787Z,20.67
2019-05-06T03:46:22.955Z,19.47
2019-05-06T03:49:04.110Z,17.63
2019-05-06T03:51:34.187Z,22.70
2019-05-06T03:54:04.206Z,19.87
2019-05-06T03:56:33.981Z,22.43
2019-05-06T03:59:04.441Z,22.33
2019-05-06T04:01:33.764Z,21.10
2019-05-06T04:04:03.673Z,18.37
2019-05-06T04:06:33.524Z,21.27
2019-05-06T04:09:05.109Z,18.40
2019-05-06T04:11:36.474Z,20.40
2019-05-06T04:14:06.874Z,18.10
2019-05-06T04:16:56.238Z,18.97
2019-05-06T04:19:27.065Z,14.97
2019-05-06T04:22:03.496Z,17.67
2019-05-06T04:24:48.849Z,16.93
2019-05-06T04:27:28.040Z,19.70
2019-05-06T04:29:57.315Z,18.00
2019-05-06T04:32:26.225Z,15.90
2019-05-06T04:34:55.013Z,15.60
2019-05-06T04:37:24.299Z,17.33
2019-05-06T04:39:53.697Z,16.67
2019-05-06T04:42:26.535Z,14.67
2019-05-06T04:44:53.642Z,17.00
2019-05-06T04:47:24.200Z,20.77
2019-05-06T04:49:53.389Z,15.40
2019-05-06T04:52:25.922Z,15.83
2019-05-06T04:54:53.402Z,15.33
2019-05-06T04:57:23.795Z,16.33
2019-05-06T04:59:54.240Z,17.27
2019-05-06T05:02:23.472Z,18.00
2019-05-06T05:04:53.227Z,16.53
2019-05-06T05:07:22.579Z,15.93
2019-05-06T05:09:53.756Z,17.83
2019-05-06T05:12:30.134Z,18.67
2019-05-06T05:15:03.263Z,15.57
2019-05-06T05:17:37.151Z,15.53
2019-05-06T05:20:07.863Z,17.57
2019-05-06T05:22:37.047Z,16.53
2019-05-06T05:25:06.883Z,20.40
2019-05-06T05:27:36.136Z,19.50
2019-05-06T05:30:09.062Z,15.00
2019-05-06T05:32:42.811Z,12.53
2019-05-06T05:35:12.687Z,15.93
2019-05-06T05:37:42.618Z,16.40
2019-05-06T05:40:13.440Z,15.33
2019-05-06T05:42:59.920Z,14.57
2019-05-06T05:45:29.521Z,17.10
2019-05-06T05:48:00.449Z,13.77
2019-05-06T05:50:37.243Z,20.73
2019-05-06T05:53:06.030Z,18.07
2019-05-06T05:55:35.085Z,16.37
2019-05-06T05:58:04.430Z,14.87
2019-05-06T06:00:36.195Z,13.97
2019-05-06T06:03:07.156Z,15.43
2019-05-06T06:05:39.603Z,18.30
2019-05-06T06:08:08.424Z,16.73
2019-05-06T06:10:42.615Z,20.27
2019-05-06T06:13:12.740Z,22.50
2019-05-06T06:15:52.027Z,13.73
2019-05-06T06:18:24.186Z,12.40
2019-05-06T06:20:55.716Z,17.37
2019-05-06T06:23:26.166Z,17.17
2019-05-06T06:25:55.154Z,14.17
2019-05-06T06:28:24.349Z,14.87
2019-05-06T06:31:03.015Z,15.23
2019-05-06T06:33:33.021Z,13.50
2019-05-06T06:36:06.885Z,18.30
2019-05-06T06:38:46.235Z,17.30
2019-05-06T06:41:15.121Z,14.13
2019-05-06T06:43:45.790Z,13.77
2019-05-06T06:46:14.626Z,17.13
2019-05-06T06:48:43.705Z,14.07
2019-05-06T06:51:12.811Z,14.63
2019-05-06T06:53:42.140Z,16.67
2019-05-06T06:56:28.388Z,14.67
2019-05-06T06:59:03.086Z,17.03
2019-05-06T07:01:42.328Z,15.63
2019-05-06T07:04:13.519Z,16.43
2019-05-06T07:06:44.625Z,17.30
2019-05-06T07:09:13.643Z,15.40
2019-05-06T07:11:42.906Z,14.13
2019-05-06T07:14:13.593Z,13.63
2019-05-06T07:16:43.018Z,14.83
2019-05-06T07:19:13.724Z,12.23
2019-05-06T07:21:53.344Z,11.23
2019-05-06T07:24:22.907Z,10.20
2019-05-06T07:26:54.012Z,10.73
2019-05-06T07:29:26.306Z,10.33
2019-05-06T07:31:53.588Z,9.47
2019-05-06T07:34:22.861Z,11.70
2019-05-06T07:36:52.644Z,9.20
2019-05-06T07:39:24.031Z,10.97
2019-05-06T07:41:57.353Z,11.97
2019-05-06T07:44:36.905Z,12.33
2019-05-06T07:47:13.290Z,6.93
2019-05-06T07:49:43.105Z,6.63
2019-05-06T07:52:12.333Z,6.13
2019-05-06T07:54:42.389Z,9.33
2019-05-06T07:57:12.772Z,8.13
2019-05-06T07:59:42.917Z,6.13
2019-05-06T08:02:13.067Z,5.83
2019-05-06T08:04:42.326Z,5.20
2019-05-06T08:07:12.619Z,5.47
2019-05-06T08:09:42.281Z,5.63
2019-05-06T08:12:12.395Z,5.87
2019-05-06T08:14:42.909Z,9.27
2019-05-06T08:17:15.683Z,8.60
2019-05-06T08:19:44.665Z,4.57
2019-05-06T08:22:15.085Z,5.83
2019-05-06T08:24:44.292Z,3.90
2019-05-06T08:27:13.292Z,8.10
2019-05-06T08:29:42.519Z,4.27
2019-05-06T08:32:12.495Z,5.73
2019-05-06T08:34:42.173Z,5.20
2019-05-06T08:37:12.819Z,3.60
2019-05-06T08:39:45.846Z,2.67
2019-05-06T08:42:13.522Z,4.63
2019-05-06T08:44:42.834Z,6.80
2019-05-06T08:47:13.301Z,5.90
2019-05-06T08:50:02.360Z,3.83
2019-05-06T08:52:32.887Z,1.87
2019-05-06T08:55:02.924Z,3.40
2019-05-06T08:57:32.523Z,2.57
2019-05-06T09:00:03.476Z,2.47
2019-05-06T09:02:32.420Z,3.97
2019-05-06T09:05:02.916Z,5.20
2019-05-06T09:07:32.169Z,1.93
2019-05-06T09:10:02.492Z,4.87
2019-05-06T09:12:32.917Z,7.33
2019-05-06T09:15:03.570Z,3.20
2019-05-06T09:17:33.067Z,3.60
2019-05-06T09:20:02.629Z,2.20
2019-05-06T09:22:32.632Z,3.23
2019-05-06T09:25:02.470Z,15.50
2019-05-06T09:27:48.663Z,4.53
2019-05-06T09:30:30.256Z,6.80
2019-05-06T09:32:59.039Z,3.07
2019-05-06T09:35:27.931Z,3.17
2019-05-06T09:37:56.958Z,4.43
2019-05-06T09:40:26.107Z,3.20
2019-05-06T09:42:54.888Z,3.20
2019-05-06T09:45:23.773Z,2.27
2019-05-06T09:48:12.887Z,2.57
2019-05-06T09:50:46.302Z,2.10
2019-05-06T09:53:15.375Z,3.87
2019-05-06T09:56:03.309Z,3.40
2019-05-06T09:58:34.473Z,4.50
2019-05-06T10:01:04.409Z,4.27
2019-05-06T10:03:33.492Z,3.50
2019-05-06T10:06:02.842Z,6.73
2019-05-06T10:08:32.294Z,2.87
2019-05-06T10:11:03.177Z,2.83
2019-05-06T10:13:32.718Z,6.30
2019-05-06T10:16:03.030Z,3.57
2019-05-06T10:18:32.681Z,4.67
2019-05-06T10:21:01.661Z,3.27
2019-05-06T10:23:32.633Z,22.03
2019-05-06T10:26:04.550Z,6.03
2019-05-06T10:28:33.601Z,4.00
2019-05-06T10:31:04.586Z,3.80
2019-05-06T10:33:33.680Z,2.27
2019-05-06T10:36:04.210Z,4.33
2019-05-06T10:38:42.388Z,1.97
2019-05-06T10:41:14.682Z,2.50
2019-05-06T10:44:06.301Z,2.57
2019-05-06T10:46:35.157Z,7.17
2019-05-06T10:49:04.177Z,5.27
2019-05-06T10:51:42.620Z,3.63
2019-05-06T10:54:12.281Z,2.43
2019-05-06T10:56:52.937Z,4.17
2019-05-06T10:59:15.107Z,2.77
2019-05-06T11:01:45.520Z,3.67
2019-05-06T11:04:14.570Z,2.87
2019-05-06T11:06:43.609Z,2.23
2019-05-06T11:09:13.573Z,4.60
2019-05-06T11:11:42.878Z,3.67
2019-05-06T11:14:12.704Z,3.37
2019-05-06T11:16:42.028Z,4.73
2019-05-06T11:19:13.124Z,2.03
2019-05-06T11:21:42.212Z,4.47
2019-05-06T11:24:12.254Z,3.60
2019-05-06T11:26:42.992Z,5.47
2019-05-06T11:29:13.330Z,3.00
2019-05-06T11:31:58.624Z,5.03
2019-05-06T11:34:29.170Z,6.03
2019-05-06T11:37:02.505Z,4.53
2019-05-06T11:39:32.227Z,4.77
2019-05-06T11:42:22.885Z,2.67
2019-05-06T11:44:32.331Z,4.43
2019-05-06T11:47:03.366Z,4.63
2019-05-06T11:49:32.620Z,5.33
2019-05-06T11:52:02.387Z,2.40
2019-05-06T11:54:33.602Z,4.20
2019-05-06T11:57:02.954Z,2.53
2019-05-06T11:59:32.000Z,2.93
2019-05-06T12:02:05.128Z,3.93
2019-05-06T12:04:33.827Z,6.57
2019-05-06T12:07:11.437Z,2.10
2019-05-06T12:09:35.472Z,3.60
2019-05-06T12:12:04.398Z,2.33
2019-05-06T12:14:33.255Z,5.23
2019-05-06T12:17:02.328Z,4.50
2019-05-06T12:19:32.396Z,3.53
2019-05-06T12:22:01.477Z,4.67
2019-05-06T12:24:30.440Z,4.70
2019-05-06T12:26:59.331Z,8.63
2019-05-06T12:29:28.319Z,6.20
2019-05-06T12:32:14.141Z,4.83
2019-05-06T12:34:43.294Z,3.77
2019-05-06T12:37:13.865Z,10.20
2019-05-06T12:39:44.662Z,6.63
2019-05-06T12:42:15.210Z,5.70
2019-05-06T12:44:45.791Z,4.17
2019-05-06T12:47:25.259Z,3.20
2019-05-06T12:49:54.453Z,2.57
2019-05-06T12:52:23.358Z,4.23
2019-05-06T12:54:54.339Z,2.37
2019-05-06T12:57:23.389Z,3.63
2019-05-06T12:59:53.238Z,3.03
2019-05-06T13:02:23.852Z,6.10
2019-05-06T13:05:00.227Z,2.50
2019-05-06T13:07:24.667Z,4.57
2019-05-06T13:09:53.432Z,4.20
2019-05-06T13:12:24.121Z,6.40
2019-05-06T13:14:53.164Z,6.33
2019-05-06T13:17:23.804Z,5.50
2019-05-06T13:19:52.779Z,3.63
2019-05-06T13:22:26.382Z,5.83
2019-05-06T13:24:55.193Z,5.40
2019-05-06T13:27:27.281Z,7.37
2019-05-06T13:29:54.687Z,6.53
2019-05-06T13:32:25.327Z,5.90
2019-05-06T13:34:54.201Z,7.37
2019-05-06T13:37:23.102Z,13.73
2019-05-06T13:39:52.930Z,4.93
2019-05-06T13:42:23.636Z,9.60
2019-05-06T13:44:52.733Z,17.70
2019-05-06T13:47:40.149Z,7.20
2019-05-06T13:50:12.194Z,19.83
2019-05-06T13:52:43.269Z,10.53
2019-05-06T13:55:12.963Z,7.63
2019-05-06T13:57:42.912Z,8.90
2019-05-06T14:00:13.670Z,10.37
2019-05-06T14:02:53.505Z,11.70
2019-05-06T14:05:22.771Z,8.83
2019-05-06T14:07:52.702Z,7.90
2019-05-06T14:10:22.288Z,6.80
2019-05-06T14:12:53.162Z,8.63
2019-05-06T14:15:23.195Z,12.57
2019-05-06T14:17:53.361Z,6.13
2019-05-06T14:20:22.739Z,7.67
2019-05-06T14:22:52.627Z,8.80
2019-05-06T14:25:33.203Z,10.80
2019-05-06T14:28:09.632Z,13.77
2019-05-06T14:30:40.106Z,7.47
2019-05-06T14:33:15.128Z,10.40
2019-05-06T14:35:43.024Z,8.63
2019-05-06T14:38:13.627Z,8.10
2019-05-06T14:41:04.369Z,14.83
2019-05-06T14:43:32.364Z,9.23
2019-05-06T14:46:00.860Z,8.40
2019-05-06T14:48:29.923Z,7.77
2019-05-06T14:50:58.870Z,7.23
2019-05-06T14:53:27.858Z,9.77
2019-05-06T14:55:58.392Z,8.23
2019-05-06T14:58:27.256Z,12.60
2019-05-06T15:00:56.650Z,17.27
2019-05-06T15:03:25.383Z,14.33
2019-05-06T15:05:54.328Z,9.77
2019-05-06T15:08:23.124Z,11.60
2019-05-06T15:10:51.911Z,8.57
2019-05-06T15:13:22.844Z,9.87
2019-05-06T15:15:52.207Z,7.77
2019-05-06T15:18:22.432Z,9.27
2019-05-06T15:20:53.137Z,6.30
2019-05-06T15:23:22.470Z,10.23
2019-05-06T15:25:52.463Z,8.37
2019-05-06T15:28:22.616Z,6.77
2019-05-06T15:31:12.346Z,11.20
2019-05-06T15:33:45.260Z,5.87
2019-05-06T15:36:19.180Z,6.87
2019-05-06T15:38:48.193Z,9.57
2019-05-06T15:41:17.632Z,11.67
2019-05-06T15:43:47.067Z,9.73
2019-05-06T15:46:15.870Z,18.07
2019-05-06T15:48:45.363Z,7.67
2019-05-06T15:51:14.367Z,10.30
2019-05-06T15:53:43.869Z,11.00
2019-05-06T15:56:13.096Z,10.10
2019-05-06T15:58:43.639Z,11.43
2019-05-06T16:01:14.461Z,11.10
2019-05-06T16:03:43.867Z,6.33
2019-05-06T16:06:12.964Z,8.83
2019-05-06T16:08:42.795Z,7.23
2019-05-06T16:11:14.374Z,10.47
2019-05-06T16:13:45.078Z,14.60
2019-05-06T16:16:13.684Z,6.03
2019-05-06T16:18:42.576Z,8.90
2019-05-06T16:21:11.706Z,9.47
2019-05-06T16:23:42.392Z,10.60
2019-05-06T16:26:12.337Z,8.60
2019-05-06T16:28:44.973Z,6.37
2019-05-06T16:31:13.277Z,7.77
2019-05-06T16:33:43.069Z,8.70
2019-05-06T16:36:13.195Z,8.93
2019-05-06T16:38:42.815Z,5.47
2019-05-06T16:41:15.668Z,8.07
2019-05-06T16:43:42.754Z,9.53
2019-05-06T16:46:12.673Z,7.93
2019-05-06T16:48:45.024Z,9.93
2019-05-06T16:51:12.613Z,10.57
2019-05-06T16:53:42.943Z,7.93
2019-05-06T16:56:22.647Z,10.47
2019-05-06T16:58:53.299Z,9.63
2019-05-06T17:01:22.588Z,8.13
2019-05-06T17:03:53.389Z,8.60
2019-05-06T17:06:26.720Z,6.37
2019-05-06T17:08:55.804Z,10.90
2019-05-06T17:11:30.418Z,12.50
2019-05-06T17:13:55.596Z,13.23
2019-05-06T17:16:24.701Z,17.30
2019-05-06T17:18:56.511Z,15.77
2019-05-06T17:21:24.238Z,16.23
2019-05-06T17:23:53.215Z,14.20
2019-05-06T17:26:22.611Z,16.00
2019-05-06T17:28:53.161Z,12.17
2019-05-06T17:31:42.460Z,16.83
2019-05-06T17:34:15.627Z,25.80
2019-05-06T17:36:46.436Z,25.83
2019-05-06T17:39:15.306Z,23.60
2019-05-06T17:41:48.590Z,22.87
2019-05-06T17:44:14.959Z,14.90
2019-05-06T17:46:54.253Z,16.53
2019-05-06T17:49:25.790Z,11.63
2019-05-06T17:51:57.054Z,15.83
2019-05-06T17:54:27.795Z,15.70
2019-05-06T17:56:57.525Z,12.93
2019-05-06T17:59:33.150Z,10.80
2019-05-06T18:01:59.127Z,8.00
2019-05-06T18:04:28.744Z,6.20
2019-05-06T18:06:57.878Z,12.80
2019-05-06T18:09:27.572Z,12.20
2019-05-06T18:11:59.330Z,5.67
2019-05-06T18:14:28.905Z,11.47
2019-05-06T18:17:03.693Z,11.80
2019-05-06T18:19:33.617Z,10.10
2019-05-06T18:22:03.053Z,11.07
2019-05-06T18:24:33.223Z,12.67
2019-05-06T18:27:04.974Z,16.83
2019-05-06T18:29:34.683Z,9.57
2019-05-06T18:32:04.062Z,10.07
2019-05-06T18:34:33.576Z,12.27
2019-05-06T18:37:04.153Z,13.47
2019-05-06T18:39:34.027Z,15.27
2019-05-06T18:42:15.535Z,23.90
2019-05-06T18:44:34.356Z,22.27
2019-05-06T18:47:03.223Z,16.73
2019-05-06T18:49:33.725Z,21.13
2019-05-06T18:52:05.204Z,31.10
2019-05-06T18:54:34.151Z,36.63
2019-05-06T18:57:04.964Z,47.07
2019-05-06T18:59:36.565Z,33.10
2019-05-06T19:02:04.232Z,25.03
2019-05-06T19:04:35.160Z,22.77
2019-05-06T19:07:10.540Z,21.40
2019-05-06T19:09:36.383Z,16.87
2019-05-06T19:12:05.412Z,13.87
2019-05-06T19:14:34.292Z,9.27
2019-05-06T19:17:03.242Z,10.77
2019-05-06T19:19:34.688Z,9.30
2019-05-06T19:22:02.975Z,10.10
2019-05-06T19:24:33.725Z,8.83
2019-05-06T19:27:02.857Z,9.07
2019-05-06T19:29:33.107Z,9.80
2019-05-06T19:32:02.958Z,9.80
2019-05-06T19:34:34.498Z,13.40
2019-05-06T19:37:02.692Z,13.33
2019-05-06T19:39:32.953Z,12.30
2019-05-06T19:42:03.924Z,9.23
2019-05-06T19:44:32.948Z,11.80
2019-05-06T19:47:02.538Z,13.50
2019-05-06T19:49:32.771Z,13.67
2019-05-06T19:52:03.134Z,11.73
2019-05-06T19:54:33.169Z,12.13
2019-05-06T19:57:02.831Z,12.63
2019-05-06T19:59:33.137Z,12.00
2019-05-06T20:02:05.029Z,12.53
2019-05-06T20:04:34.297Z,18.27
2019-05-06T20:07:04.806Z,13.03
2019-05-06T20:09:44.762Z,12.47
2019-05-06T20:12:15.469Z,11.67
2019-05-06T20:14:44.770Z,18.27
2019-05-06T20:17:14.132Z,19.83
2019-05-06T20:19:43.951Z,18.40
2019-05-06T20:22:15.966Z,16.57
2019-05-06T20:24:45.688Z,21.93
2019-05-06T20:27:14.675Z,16.77
2019-05-06T20:29:43.746Z,15.70
2019-05-06T20:32:13.572Z,15.60
2019-05-06T20:34:43.715Z,18.07
2019-05-06T20:37:13.265Z,16.27
2019-05-06T20:39:43.289Z,17.97
2019-05-06T20:42:13.016Z,19.03
2019-05-06T20:44:43.380Z,17.67
2019-05-06T20:47:13.232Z,17.57
2019-05-06T20:49:43.197Z,15.97
2019-05-06T20:52:12.609Z,17.73
2019-05-06T20:54:42.639Z,21.57
2019-05-06T20:57:12.425Z,17.73
2019-05-06T20:59:42.124Z,15.00
2019-05-06T21:02:12.420Z,15.67
2019-05-06T21:04:43.209Z,15.20
2019-05-06T21:07:12.496Z,15.07
2019-05-06T21:09:43.183Z,15.60
2019-05-06T21:12:12.780Z,16.80
2019-05-06T21:14:42.520Z,13.03
2019-05-06T21:17:12.367Z,15.57
2019-05-06T21:19:41.988Z,14.17
2019-05-06T21:22:13.254Z,14.30
2019-05-06T21:24:43.017Z,16.57
2019-05-06T21:27:12.477Z,15.97
2019-05-06T21:29:42.885Z,14.97
2019-05-06T21:32:12.180Z,17.47
2019-05-06T21:34:43.235Z,14.77
2019-05-06T21:37:12.739Z,21.80
2019-05-06T21:39:42.967Z,13.57
2019-05-06T21:42:12.432Z,17.93
2019-05-06T21:44:42.935Z,15.53
2019-05-06T21:47:12.529Z,18.77
2019-05-06T21:49:42.276Z,16.37
2019-05-06T21:52:13.025Z,18.87
2019-05-06T21:54:43.451Z,14.67
2019-05-06T21:57:12.718Z,17.23
2019-05-06T21:59:42.778Z,19.57
2019-05-06T22:02:13.828Z,17.60
2019-05-06T22:04:43.367Z,21.50
2019-05-06T22:07:12.427Z,18.77
2019-05-06T22:09:43.060Z,20.97
2019-05-06T22:12:12.359Z,24.77
2019-05-06T22:14:42.238Z,18.83
2019-05-06T22:17:13.947Z,23.40
2019-05-06T22:19:42.745Z,21.30
2019-05-06T22:22:14.621Z,20.20
2019-05-06T22:24:47.831Z,25.43
2019-05-06T22:27:16.951Z,26.60
2019-05-06T22:29:45.899Z,26.83
2019-05-06T22:32:15.106Z,18.97
2019-05-06T22:34:44.182Z,20.37
2019-05-06T22:37:13.115Z,18.03
2019-05-06T22:39:43.483Z,27.40
2019-05-06T22:42:12.584Z,25.23
2019-05-06T22:44:42.867Z,27.90
2019-05-06T22:47:12.460Z,25.30
2019-05-06T22:49:41.424Z,23.37
2019-05-06T22:52:12.408Z,21.10
2019-05-06T22:54:40.676Z,20.50
2019-05-06T22:57:11.908Z,18.27
2019-05-06T22:59:40.054Z,14.40
2019-05-06T23:02:13.009Z,13.90
2019-05-06T23:04:44.369Z,18.97
2019-05-06T23:07:14.562Z,17.50
2019-05-06T23:09:43.365Z,16.57
2019-05-06T23:12:12.408Z,21.97
2019-05-06T23:14:41.966Z,18.30
2019-05-06T23:17:12.704Z,18.80
2019-05-06T23:19:42.954Z,22.43
2019-05-06T23:22:12.247Z,16.93
2019-05-06T23:24:41.199Z,18.03
2019-05-06T23:27:10.087Z,16.70
2019-05-06T23:29:38.976Z,21.53
2019-05-06T23:32:07.772Z,14.27
2019-05-06T23:34:37.062Z,20.20
2019-05-06T23:37:13.034Z,20.13
2019-05-06T23:40:19.500Z,16.07
2019-05-06T23:43:25.524Z,16.97
2019-05-06T23:46:32.386Z,17.53
2019-05-06T23:49:38.067Z,18.57
2019-05-06T23:52:43.657Z,21.67
2019-05-06T23:55:49.417Z,20.30
2019-05-06T23:58:17.642Z,15.47
